sensor_id;sensor_type;location;lat;lon;timestamp;P1;durP1;ratioP1;P2;durP2;ratioP2
36321;SDS011;23564;48.290;11.460;2024-02-15T00:01:58;6.22;;;2.75;;
36321;SDS011;23564;48.290;11.460;2024-02-15T00:04:23;5.50;;;3.05;;
36321;SDS011;23564;48.290;11.460;2024-02-15T00:06:49;6.10;;;2.75;;
36321;SDS011;23564;48.290;11.460;2024-02-15T00:09:14;6.70;;;2.65;;
36321;SDS011;23564;48.290;11.460;2024-02-15T00:11:40;5.13;;;2.53;;
36321;SDS011;23564;48.290;11.460;2024-02-15T00:14:05;6.38;;;2.35;;
36321;SDS011;23564;48.290;11.460;2024-02-15T00:16:32;5.13;;;2.90;;
36321;SDS011;23564;48.290;11.460;2024-02-15T00:18:58;9.05;;;3.00;;
36321;SDS011;23564;48.290;11.460;2024-02-15T00:21:24;5.13;;;2.95;;
36321;SDS011;23564;48.290;11.460;2024-02-15T00:23:50;5.22;;;2.92;;
36321;SDS011;23564;48.290;11.460;2024-02-15T00:26:15;4.88;;;2.55;;
36321;SDS011;23564;48.290;11.460;2024-02-15T00:28:41;4.35;;;2.83;;
36321;SDS011;23564;48.290;11.460;2024-02-15T00:31:07;4.97;;;2.60;;
36321;SDS011;23564;48.290;11.460;2024-02-15T00:33:33;5.80;;;3.25;;
36321;SDS011;23564;48.290;11.460;2024-02-15T00:36:01;4.65;;;2.30;;
36321;SDS011;23564;48.290;11.460;2024-02-15T00:38:28;4.57;;;2.60;;
36321;SDS011;23564;48.290;11.460;2024-02-15T00:40:54;3.90;;;2.55;;
36321;SDS011;23564;48.290;11.460;2024-02-15T00:43:20;5.78;;;2.60;;
36321;SDS011;23564;48.290;11.460;2024-02-15T00:45:45;4.63;;;3.10;;
36321;SDS011;23564;48.290;11.460;2024-02-15T00:48:11;4.45;;;2.30;;
36321;SDS011;23564;48.290;11.460;2024-02-15T00:50:37;5.22;;;2.75;;
36321;SDS011;23564;48.290;11.460;2024-02-15T00:53:03;9.60;;;3.03;;
36321;SDS011;23564;48.290;11.460;2024-02-15T00:55:29;4.07;;;2.13;;
36321;SDS011;23564;48.290;11.460;2024-02-15T00:57:54;4.65;;;2.22;;
36321;SDS011;23564;48.290;11.460;2024-02-15T01:00:20;3.20;;;2.20;;
36321;SDS011;23564;48.290;11.460;2024-02-15T01:02:45;4.57;;;2.20;;
36321;SDS011;23564;48.290;11.460;2024-02-15T01:05:11;9.43;;;2.47;;
36321;SDS011;23564;48.290;11.460;2024-02-15T01:07:40;4.07;;;2.17;;
36321;SDS011;23564;48.290;11.460;2024-02-15T01:10:06;6.10;;;1.88;;
36321;SDS011;23564;48.290;11.460;2024-02-15T01:12:32;3.67;;;1.92;;
36321;SDS011;23564;48.290;11.460;2024-02-15T01:14:58;4.45;;;1.92;;
36321;SDS011;23564;48.290;11.460;2024-02-15T01:17:23;2.40;;;1.67;;
36321;SDS011;23564;48.290;11.460;2024-02-15T01:19:49;2.67;;;1.60;;
36321;SDS011;23564;48.290;11.460;2024-02-15T01:22:14;3.15;;;1.98;;
36321;SDS011;23564;48.290;11.460;2024-02-15T01:24:40;4.93;;;1.95;;
36321;SDS011;23564;48.290;11.460;2024-02-15T01:27:06;3.10;;;2.03;;
36321;SDS011;23564;48.290;11.460;2024-02-15T01:29:32;3.97;;;2.08;;
36321;SDS011;23564;48.290;11.460;2024-02-15T01:31:58;3.10;;;2.28;;
36321;SDS011;23564;48.290;11.460;2024-02-15T01:34:23;5.38;;;2.15;;
36321;SDS011;23564;48.290;11.460;2024-02-15T01:36:49;5.50;;;2.25;;
36321;SDS011;23564;48.290;11.460;2024-02-15T01:39:15;4.72;;;2.22;;
36321;SDS011;23564;48.290;11.460;2024-02-15T01:41:45;5.28;;;2.40;;
36321;SDS011;23564;48.290;11.460;2024-02-15T01:44:13;5.05;;;3.03;;
36321;SDS011;23564;48.290;11.460;2024-02-15T01:46:38;3.83;;;2.28;;
36321;SDS011;23564;48.290;11.460;2024-02-15T01:49:04;4.07;;;2.25;;
36321;SDS011;23564;48.290;11.460;2024-02-15T01:51:32;5.80;;;2.55;;
36321;SDS011;23564;48.290;11.460;2024-02-15T01:54:00;6.38;;;2.58;;
36321;SDS011;23564;48.290;11.460;2024-02-15T01:56:26;7.18;;;2.72;;
36321;SDS011;23564;48.290;11.460;2024-02-15T01:58:53;4.35;;;2.60;;
36321;SDS011;23564;48.290;11.460;2024-02-15T02:01:19;3.65;;;2.08;;
36321;SDS011;23564;48.290;11.460;2024-02-15T02:03:46;5.43;;;2.60;;
36321;SDS011;23564;48.290;11.460;2024-02-15T02:06:12;4.82;;;2.50;;
36321;SDS011;23564;48.290;11.460;2024-02-15T02:08:38;5.22;;;2.50;;
36321;SDS011;23564;48.290;11.460;2024-02-15T02:11:04;6.05;;;1.95;;
36321;SDS011;23564;48.290;11.460;2024-02-15T02:13:30;3.42;;;2.28;;
36321;SDS011;23564;48.290;11.460;2024-02-15T02:15:56;3.83;;;2.25;;
36321;SDS011;23564;48.290;11.460;2024-02-15T02:18:22;4.60;;;2.30;;
36321;SDS011;23564;48.290;11.460;2024-02-15T02:20:49;4.22;;;2.55;;
36321;SDS011;23564;48.290;11.460;2024-02-15T02:23:15;5.20;;;2.28;;
36321;SDS011;23564;48.290;11.460;2024-02-15T02:25:43;4.43;;;2.17;;
36321;SDS011;23564;48.290;11.460;2024-02-15T02:28:11;5.60;;;1.98;;
36321;SDS011;23564;48.290;11.460;2024-02-15T02:30:36;4.25;;;2.35;;
36321;SDS011;23564;48.290;11.460;2024-02-15T02:33:05;3.47;;;2.00;;
36321;SDS011;23564;48.290;11.460;2024-02-15T02:35:35;3.67;;;2.10;;
36321;SDS011;23564;48.290;11.460;2024-02-15T02:38:01;5.18;;;2.28;;
36321;SDS011;23564;48.290;11.460;2024-02-15T02:40:27;2.78;;;1.80;;
36321;SDS011;23564;48.290;11.460;2024-02-15T02:42:54;5.63;;;2.22;;
36321;SDS011;23564;48.290;11.460;2024-02-15T02:45:24;5.07;;;2.28;;
36321;SDS011;23564;48.290;11.460;2024-02-15T02:47:50;2.28;;;1.73;;
36321;SDS011;23564;48.290;11.460;2024-02-15T02:50:17;3.22;;;1.90;;
36321;SDS011;23564;48.290;11.460;2024-02-15T02:52:44;3.47;;;1.60;;
36321;SDS011;23564;48.290;11.460;2024-02-15T02:55:09;2.03;;;1.83;;
36321;SDS011;23564;48.290;11.460;2024-02-15T02:57:36;3.88;;;1.88;;
36321;SDS011;23564;48.290;11.460;2024-02-15T03:00:05;3.10;;;2.05;;
36321;SDS011;23564;48.290;11.460;2024-02-15T03:02:40;3.75;;;1.83;;
36321;SDS011;23564;48.290;11.460;2024-02-15T03:05:10;2.05;;;1.55;;
36321;SDS011;23564;48.290;11.460;2024-02-15T03:07:36;3.30;;;1.92;;
36321;SDS011;23564;48.290;11.460;2024-02-15T03:10:03;3.17;;;2.03;;
36321;SDS011;23564;48.290;11.460;2024-02-15T03:12:29;5.03;;;1.77;;
36321;SDS011;23564;48.290;11.460;2024-02-15T03:14:55;3.67;;;1.77;;
36321;SDS011;23564;48.290;11.460;2024-02-15T03:17:22;4.78;;;1.92;;
36321;SDS011;23564;48.290;11.460;2024-02-15T03:19:48;4.38;;;2.30;;
36321;SDS011;23564;48.290;11.460;2024-02-15T03:22:14;2.45;;;1.60;;
36321;SDS011;23564;48.290;11.460;2024-02-15T03:24:40;4.78;;;1.90;;
36321;SDS011;23564;48.290;11.460;2024-02-15T03:27:05;5.80;;;2.03;;
36321;SDS011;23564;48.290;11.460;2024-02-15T03:29:32;3.50;;;1.60;;
36321;SDS011;23564;48.290;11.460;2024-02-15T03:31:59;6.57;;;1.92;;
36321;SDS011;23564;48.290;11.460;2024-02-15T03:34:24;3.28;;;1.80;;
36321;SDS011;23564;48.290;11.460;2024-02-15T03:36:50;5.13;;;1.77;;
36321;SDS011;23564;48.290;11.460;2024-02-15T03:39:19;3.42;;;1.48;;
36321;SDS011;23564;48.290;11.460;2024-02-15T03:41:45;3.88;;;1.95;;
36321;SDS011;23564;48.290;11.460;2024-02-15T03:44:11;2.60;;;1.60;;
36321;SDS011;23564;48.290;11.460;2024-02-15T03:46:37;6.25;;;1.90;;
36321;SDS011;23564;48.290;11.460;2024-02-15T03:49:03;5.72;;;2.10;;
36321;SDS011;23564;48.290;11.460;2024-02-15T03:51:28;2.88;;;1.58;;
36321;SDS011;23564;48.290;11.460;2024-02-15T03:53:54;3.92;;;1.80;;
36321;SDS011;23564;48.290;11.460;2024-02-15T03:56:19;4.10;;;1.90;;
36321;SDS011;23564;48.290;11.460;2024-02-15T03:58:48;2.95;;;1.60;;
36321;SDS011;23564;48.290;11.460;2024-02-15T04:01:15;6.53;;;1.80;;
36321;SDS011;23564;48.290;11.460;2024-02-15T04:03:41;3.10;;;1.73;;
36321;SDS011;23564;48.290;11.460;2024-02-15T04:06:06;3.70;;;2.00;;
36321;SDS011;23564;48.290;11.460;2024-02-15T04:08:32;3.30;;;1.60;;
36321;SDS011;23564;48.290;11.460;2024-02-15T04:10:58;2.83;;;1.85;;
36321;SDS011;23564;48.290;11.460;2024-02-15T04:13:24;4.70;;;2.80;;
36321;SDS011;23564;48.290;11.460;2024-02-15T04:15:49;2.67;;;1.70;;
36321;SDS011;23564;48.290;11.460;2024-02-15T04:18:17;4.78;;;2.17;;
36321;SDS011;23564;48.290;11.460;2024-02-15T04:20:44;4.32;;;2.47;;
36321;SDS011;23564;48.290;11.460;2024-02-15T04:23:11;5.10;;;2.25;;
36321;SDS011;23564;48.290;11.460;2024-02-15T04:25:37;3.33;;;2.20;;
36321;SDS011;23564;48.290;11.460;2024-02-15T04:28:03;3.60;;;2.20;;
36321;SDS011;23564;48.290;11.460;2024-02-15T04:30:32;4.63;;;2.00;;
36321;SDS011;23564;48.290;11.460;2024-02-15T04:32:59;3.17;;;2.05;;
36321;SDS011;23564;48.290;11.460;2024-02-15T04:35:25;4.72;;;2.50;;
36321;SDS011;23564;48.290;11.460;2024-02-15T04:37:52;4.97;;;2.45;;
36321;SDS011;23564;48.290;11.460;2024-02-15T04:40:18;3.35;;;2.28;;
36321;SDS011;23564;48.290;11.460;2024-02-15T04:42:44;6.75;;;2.17;;
36321;SDS011;23564;48.290;11.460;2024-02-15T04:45:12;5.07;;;1.95;;
36321;SDS011;23564;48.290;11.460;2024-02-15T04:47:40;5.88;;;2.47;;
36321;SDS011;23564;48.290;11.460;2024-02-15T04:50:06;5.07;;;2.45;;
36321;SDS011;23564;48.290;11.460;2024-02-15T04:52:33;4.25;;;2.63;;
36321;SDS011;23564;48.290;11.460;2024-02-15T04:54:58;3.38;;;2.13;;
36321;SDS011;23564;48.290;11.460;2024-02-15T04:57:27;4.38;;;2.80;;
36321;SDS011;23564;48.290;11.460;2024-02-15T04:59:55;6.88;;;2.40;;
36321;SDS011;23564;48.290;11.460;2024-02-15T05:02:21;4.07;;;2.50;;
36321;SDS011;23564;48.290;11.460;2024-02-15T05:04:49;6.10;;;2.53;;
36321;SDS011;23564;48.290;11.460;2024-02-15T05:07:20;4.13;;;2.63;;
36321;SDS011;23564;48.290;11.460;2024-02-15T05:09:47;6.13;;;2.50;;
36321;SDS011;23564;48.290;11.460;2024-02-15T05:12:23;6.03;;;2.70;;
36321;SDS011;23564;48.290;11.460;2024-02-15T05:17:15;3.72;;;2.40;;
36321;SDS011;23564;48.290;11.460;2024-02-15T05:19:41;4.13;;;2.60;;
36321;SDS011;23564;48.290;11.460;2024-02-15T05:22:07;4.45;;;2.45;;
36321;SDS011;23564;48.290;11.460;2024-02-15T05:24:32;4.93;;;2.90;;
36321;SDS011;23564;48.290;11.460;2024-02-15T05:26:59;4.80;;;2.85;;
36321;SDS011;23564;48.290;11.460;2024-02-15T05:29:24;4.05;;;2.53;;
36321;SDS011;23564;48.290;11.460;2024-02-15T05:31:50;5.00;;;2.63;;
36321;SDS011;23564;48.290;11.460;2024-02-15T05:34:16;4.45;;;2.42;;
36321;SDS011;23564;48.290;11.460;2024-02-15T05:36:42;4.28;;;2.67;;
36321;SDS011;23564;48.290;11.460;2024-02-15T05:39:07;5.13;;;2.42;;
36321;SDS011;23564;48.290;11.460;2024-02-15T05:41:36;5.47;;;2.55;;
36321;SDS011;23564;48.290;11.460;2024-02-15T05:44:02;5.18;;;2.88;;
36321;SDS011;23564;48.290;11.460;2024-02-15T05:46:31;4.85;;;2.60;;
36321;SDS011;23564;48.290;11.460;2024-02-15T05:48:58;3.90;;;2.47;;
36321;SDS011;23564;48.290;11.460;2024-02-15T05:51:24;5.68;;;2.78;;
36321;SDS011;23564;48.290;11.460;2024-02-15T05:53:50;4.57;;;2.75;;
36321;SDS011;23564;48.290;11.460;2024-02-15T05:56:18;5.32;;;3.00;;
36321;SDS011;23564;48.290;11.460;2024-02-15T05:58:43;4.55;;;2.47;;
36321;SDS011;23564;48.290;11.460;2024-02-15T06:01:09;5.80;;;2.33;;
36321;SDS011;23564;48.290;11.460;2024-02-15T06:03:37;5.47;;;2.70;;
36321;SDS011;23564;48.290;11.460;2024-02-15T06:06:05;5.53;;;2.47;;
36321;SDS011;23564;48.290;11.460;2024-02-15T06:08:34;7.28;;;2.88;;
36321;SDS011;23564;48.290;11.460;2024-02-15T06:11:00;3.30;;;2.55;;
36321;SDS011;23564;48.290;11.460;2024-02-15T06:13:29;4.70;;;2.80;;
36321;SDS011;23564;48.290;11.460;2024-02-15T06:15:54;4.95;;;3.10;;
36321;SDS011;23564;48.290;11.460;2024-02-15T06:18:20;5.03;;;2.75;;
36321;SDS011;23564;48.290;11.460;2024-02-15T06:20:49;6.25;;;3.35;;
36321;SDS011;23564;48.290;11.460;2024-02-15T06:23:16;5.85;;;2.88;;
36321;SDS011;23564;48.290;11.460;2024-02-15T06:25:42;5.80;;;2.90;;
36321;SDS011;23564;48.290;11.460;2024-02-15T06:28:09;7.25;;;2.90;;
36321;SDS011;23564;48.290;11.460;2024-02-15T06:30:41;6.57;;;3.35;;
36321;SDS011;23564;48.290;11.460;2024-02-15T06:33:26;5.13;;;3.35;;
36321;SDS011;23564;48.290;11.460;2024-02-15T06:36:11;4.53;;;2.40;;
36321;SDS011;23564;48.290;11.460;2024-02-15T06:38:54;7.00;;;2.80;;
36321;SDS011;23564;48.290;11.460;2024-02-15T06:41:38;7.20;;;3.08;;
36321;SDS011;23564;48.290;11.460;2024-02-15T06:44:05;5.30;;;3.25;;
36321;SDS011;23564;48.290;11.460;2024-02-15T06:46:31;5.05;;;2.72;;
36321;SDS011;23564;48.290;11.460;2024-02-15T06:48:56;7.93;;;3.47;;
36321;SDS011;23564;48.290;11.460;2024-02-15T06:51:23;10.88;;;2.90;;
36321;SDS011;23564;48.290;11.460;2024-02-15T06:53:49;6.63;;;3.10;;
36321;SDS011;23564;48.290;11.460;2024-02-15T06:56:16;7.90;;;3.65;;
36321;SDS011;23564;48.290;11.460;2024-02-15T06:58:45;6.57;;;3.28;;
36321;SDS011;23564;48.290;11.460;2024-02-15T07:01:11;6.63;;;3.08;;
36321;SDS011;23564;48.290;11.460;2024-02-15T07:03:38;8.55;;;3.25;;
36321;SDS011;23564;48.290;11.460;2024-02-15T07:06:04;8.05;;;3.38;;
36321;SDS011;23564;48.290;11.460;2024-02-15T07:08:31;6.65;;;3.20;;
36321;SDS011;23564;48.290;11.460;2024-02-15T07:10:57;6.90;;;3.28;;
36321;SDS011;23564;48.290;11.460;2024-02-15T07:13:23;7.30;;;3.55;;
36321;SDS011;23564;48.290;11.460;2024-02-15T07:15:51;6.80;;;3.92;;
36321;SDS011;23564;48.290;11.460;2024-02-15T07:18:17;6.45;;;3.55;;
36321;SDS011;23564;48.290;11.460;2024-02-15T07:20:45;6.18;;;3.53;;
36321;SDS011;23564;48.290;11.460;2024-02-15T07:23:11;8.73;;;3.58;;
36321;SDS011;23564;48.290;11.460;2024-02-15T07:25:37;8.70;;;4.00;;
36321;SDS011;23564;48.290;11.460;2024-02-15T07:28:04;8.38;;;3.25;;
36321;SDS011;23564;48.290;11.460;2024-02-15T07:30:30;5.53;;;3.13;;
36321;SDS011;23564;48.290;11.460;2024-02-15T07:32:56;7.32;;;3.67;;
36321;SDS011;23564;48.290;11.460;2024-02-15T07:35:22;6.30;;;3.25;;
36321;SDS011;23564;48.290;11.460;2024-02-15T07:37:53;11.55;;;4.15;;
36321;SDS011;23564;48.290;11.460;2024-02-15T07:40:20;8.57;;;3.90;;
36321;SDS011;23564;48.290;11.460;2024-02-15T07:42:47;7.90;;;4.18;;
36321;SDS011;23564;48.290;11.460;2024-02-15T07:45:14;8.30;;;3.95;;
36321;SDS011;23564;48.290;11.460;2024-02-15T07:47:39;9.45;;;3.67;;
36321;SDS011;23564;48.290;11.460;2024-02-15T07:50:05;7.60;;;4.20;;
36321;SDS011;23564;48.290;11.460;2024-02-15T07:52:34;10.38;;;4.20;;
36321;SDS011;23564;48.290;11.460;2024-02-15T07:55:00;9.55;;;3.95;;
36321;SDS011;23564;48.290;11.460;2024-02-15T07:57:33;10.15;;;3.88;;
36321;SDS011;23564;48.290;11.460;2024-02-15T07:59:58;8.65;;;3.38;;
36321;SDS011;23564;48.290;11.460;2024-02-15T08:02:24;14.32;;;3.13;;
36321;SDS011;23564;48.290;11.460;2024-02-15T08:04:53;7.45;;;2.97;;
36321;SDS011;23564;48.290;11.460;2024-02-15T08:07:19;6.03;;;2.95;;
36321;SDS011;23564;48.290;11.460;2024-02-15T08:09:45;6.57;;;3.28;;
36321;SDS011;23564;48.290;11.460;2024-02-15T08:12:11;5.20;;;2.53;;
36321;SDS011;23564;48.290;11.460;2024-02-15T08:14:37;4.63;;;2.13;;
36321;SDS011;23564;48.290;11.460;2024-02-15T08:17:04;6.68;;;2.63;;
36321;SDS011;23564;48.290;11.460;2024-02-15T08:19:33;3.97;;;2.20;;
36321;SDS011;23564;48.290;11.460;2024-02-15T08:22:03;6.03;;;2.13;;
36321;SDS011;23564;48.290;11.460;2024-02-15T08:24:30;7.88;;;2.35;;
36321;SDS011;23564;48.290;11.460;2024-02-15T08:26:55;4.90;;;2.20;;
36321;SDS011;23564;48.290;11.460;2024-02-15T08:29:24;4.40;;;2.28;;
36321;SDS011;23564;48.290;11.460;2024-02-15T08:31:49;4.82;;;2.03;;
36321;SDS011;23564;48.290;11.460;2024-02-15T08:34:15;5.85;;;1.83;;
36321;SDS011;23564;48.290;11.460;2024-02-15T08:36:43;9.25;;;2.22;;
36321;SDS011;23564;48.290;11.460;2024-02-15T08:39:09;5.40;;;1.90;;
36321;SDS011;23564;48.290;11.460;2024-02-15T08:41:40;5.28;;;2.25;;
36321;SDS011;23564;48.290;11.460;2024-02-15T08:44:05;2.78;;;1.85;;
36321;SDS011;23564;48.290;11.460;2024-02-15T08:46:36;7.15;;;2.03;;
36321;SDS011;23564;48.290;11.460;2024-02-15T08:49:02;4.72;;;2.17;;
36321;SDS011;23564;48.290;11.460;2024-02-15T08:51:28;3.85;;;1.80;;
36321;SDS011;23564;48.290;11.460;2024-02-15T08:53:55;3.38;;;1.95;;
36321;SDS011;23564;48.290;11.460;2024-02-15T08:56:21;4.22;;;2.22;;
36321;SDS011;23564;48.290;11.460;2024-02-15T08:58:48;5.40;;;2.03;;
36321;SDS011;23564;48.290;11.460;2024-02-15T09:01:14;4.47;;;1.92;;
36321;SDS011;23564;48.290;11.460;2024-02-15T09:03:39;3.38;;;1.90;;
36321;SDS011;23564;48.290;11.460;2024-02-15T09:06:05;3.03;;;1.80;;
36321;SDS011;23564;48.290;11.460;2024-02-15T09:08:32;4.55;;;2.20;;
36321;SDS011;23564;48.290;11.460;2024-02-15T09:10:58;5.15;;;1.80;;
36321;SDS011;23564;48.290;11.460;2024-02-15T09:13:24;4.28;;;2.03;;
36321;SDS011;23564;48.290;11.460;2024-02-15T09:15:49;4.88;;;1.90;;
36321;SDS011;23564;48.290;11.460;2024-02-15T09:18:15;5.78;;;1.73;;
36321;SDS011;23564;48.290;11.460;2024-02-15T09:20:42;6.25;;;2.13;;
36321;SDS011;23564;48.290;11.460;2024-02-15T09:23:10;3.28;;;2.17;;
36321;SDS011;23564;48.290;11.460;2024-02-15T09:25:40;3.97;;;2.22;;
36321;SDS011;23564;48.290;11.460;2024-02-15T09:28:09;5.60;;;2.63;;
36321;SDS011;23564;48.290;11.460;2024-02-15T09:30:35;6.15;;;2.67;;
36321;SDS011;23564;48.290;11.460;2024-02-15T09:33:01;2.83;;;2.13;;
36321;SDS011;23564;48.290;11.460;2024-02-15T09:35:30;4.40;;;2.40;;
36321;SDS011;23564;48.290;11.460;2024-02-15T09:37:56;5.90;;;2.25;;
36321;SDS011;23564;48.290;11.460;2024-02-15T09:40:22;4.63;;;2.40;;
36321;SDS011;23564;48.290;11.460;2024-02-15T09:42:51;6.25;;;2.15;;
36321;SDS011;23564;48.290;11.460;2024-02-15T09:45:18;4.53;;;2.42;;
36321;SDS011;23564;48.290;11.460;2024-02-15T09:47:45;5.82;;;2.28;;
36321;SDS011;23564;48.290;11.460;2024-02-15T09:50:14;4.45;;;2.45;;
36321;SDS011;23564;48.290;11.460;2024-02-15T09:52:45;4.32;;;2.03;;
36321;SDS011;23564;48.290;11.460;2024-02-15T09:55:12;7.07;;;3.13;;
36321;SDS011;23564;48.290;11.460;2024-02-15T09:57:41;3.75;;;2.33;;
36321;SDS011;23564;48.290;11.460;2024-02-15T10:00:08;6.03;;;1.83;;
36321;SDS011;23564;48.290;11.460;2024-02-15T10:02:38;2.95;;;2.03;;
36321;SDS011;23564;48.290;11.460;2024-02-15T10:05:06;3.67;;;2.20;;
36321;SDS011;23564;48.290;11.460;2024-02-15T10:07:36;6.10;;;2.55;;
36321;SDS011;23564;48.290;11.460;2024-02-15T10:10:13;6.95;;;2.15;;
36321;SDS011;23564;48.290;11.460;2024-02-15T10:12:44;7.60;;;2.47;;
36321;SDS011;23564;48.290;11.460;2024-02-15T10:18:09;3.10;;;2.25;;
36321;SDS011;23564;48.290;11.460;2024-02-15T10:20:37;3.38;;;2.05;;
36321;SDS011;23564;48.290;11.460;2024-02-15T10:23:12;5.55;;;2.13;;
36321;SDS011;23564;48.290;11.460;2024-02-15T10:25:42;3.35;;;2.00;;
36321;SDS011;23564;48.290;11.460;2024-02-15T10:28:09;3.40;;;1.92;;
36321;SDS011;23564;48.290;11.460;2024-02-15T10:30:41;6.50;;;1.88;;
36321;SDS011;23564;48.290;11.460;2024-02-15T10:33:10;2.35;;;1.77;;
36321;SDS011;23564;48.290;11.460;2024-02-15T10:38:29;3.22;;;1.60;;
36321;SDS011;23564;48.290;11.460;2024-02-15T10:40:56;2.78;;;1.52;;
36321;SDS011;23564;48.290;11.460;2024-02-15T10:43:30;6.80;;;1.83;;
36321;SDS011;23564;48.290;11.460;2024-02-15T10:45:56;3.72;;;1.75;;
36321;SDS011;23564;48.290;11.460;2024-02-15T10:48:22;7.03;;;1.67;;
36321;SDS011;23564;48.290;11.460;2024-02-15T10:50:47;3.88;;;1.77;;
36321;SDS011;23564;48.290;11.460;2024-02-15T10:53:21;4.90;;;1.92;;
36321;SDS011;23564;48.290;11.460;2024-02-15T10:55:57;3.90;;;1.85;;
36321;SDS011;23564;48.290;11.460;2024-02-15T10:58:42;4.63;;;1.77;;
36321;SDS011;23564;48.290;11.460;2024-02-15T11:01:25;5.05;;;1.70;;
36321;SDS011;23564;48.290;11.460;2024-02-15T11:03:59;2.50;;;1.65;;
36321;SDS011;23564;48.290;11.460;2024-02-15T11:06:28;4.57;;;1.52;;
36321;SDS011;23564;48.290;11.460;2024-02-15T11:08:55;4.78;;;1.70;;
36321;SDS011;23564;48.290;11.460;2024-02-15T11:11:21;4.95;;;1.40;;
36321;SDS011;23564;48.290;11.460;2024-02-15T11:13:47;2.83;;;1.50;;
36321;SDS011;23564;48.290;11.460;2024-02-15T11:19:05;8.03;;;1.97;;
36321;SDS011;23564;48.290;11.460;2024-02-15T11:24:29;4.00;;;1.50;;
36321;SDS011;23564;48.290;11.460;2024-02-15T11:27:00;6.68;;;1.73;;
36321;SDS011;23564;48.290;11.460;2024-02-15T11:35:09;2.92;;;2.15;;
36321;SDS011;23564;48.290;11.460;2024-02-15T11:40:13;1.90;;;1.13;;
36321;SDS011;23564;48.290;11.460;2024-02-15T11:42:40;2.90;;;1.40;;
36321;SDS011;23564;48.290;11.460;2024-02-15T11:45:06;2.47;;;1.10;;
36321;SDS011;23564;48.290;11.460;2024-02-15T11:47:32;2.97;;;1.17;;
36321;SDS011;23564;48.290;11.460;2024-02-15T11:50:04;2.58;;;1.00;;
36321;SDS011;23564;48.290;11.460;2024-02-15T11:52:42;1.85;;;0.90;;
36321;SDS011;23564;48.290;11.460;2024-02-15T11:55:09;4.07;;;1.33;;
36321;SDS011;23564;48.290;11.460;2024-02-15T11:57:54;4.57;;;1.30;;
36321;SDS011;23564;48.290;11.460;2024-02-15T12:00:25;3.85;;;1.20;;
36321;SDS011;23564;48.290;11.460;2024-02-15T12:03:10;3.00;;;1.08;;
36321;SDS011;23564;48.290;11.460;2024-02-15T12:05:57;3.35;;;1.00;;
36321;SDS011;23564;48.290;11.460;2024-02-15T12:08:45;0.75;;;0.68;;
36321;SDS011;23564;48.290;11.460;2024-02-15T12:11:29;4.30;;;1.20;;
36321;SDS011;23564;48.290;11.460;2024-02-15T12:14:14;5.15;;;1.00;;
36321;SDS011;23564;48.290;11.460;2024-02-15T12:17:12;2.75;;;0.95;;
36321;SDS011;23564;48.290;11.460;2024-02-15T12:19:59;2.83;;;0.98;;
36321;SDS011;23564;48.290;11.460;2024-02-15T12:22:35;5.35;;;0.80;;
36321;SDS011;23564;48.290;11.460;2024-02-15T12:25:07;0.93;;;0.70;;
36321;SDS011;23564;48.290;11.460;2024-02-15T12:27:39;1.85;;;0.90;;
36321;SDS011;23564;48.290;11.460;2024-02-15T12:30:08;2.13;;;0.90;;
36321;SDS011;23564;48.290;11.460;2024-02-15T12:32:39;5.13;;;1.00;;
36321;SDS011;23564;48.290;11.460;2024-02-15T12:35:11;6.05;;;0.63;;
36321;SDS011;23564;48.290;11.460;2024-02-15T12:37:44;2.08;;;0.75;;
36321;SDS011;23564;48.290;11.460;2024-02-15T12:40:11;1.92;;;0.90;;
36321;SDS011;23564;48.290;11.460;2024-02-15T12:42:45;2.78;;;0.80;;
36321;SDS011;23564;48.290;11.460;2024-02-15T12:45:17;4.45;;;0.55;;
36321;SDS011;23564;48.290;11.460;2024-02-15T12:47:49;3.85;;;1.10;;
36321;SDS011;23564;48.290;11.460;2024-02-15T12:50:16;2.17;;;0.93;;
36321;SDS011;23564;48.290;11.460;2024-02-15T12:52:45;1.40;;;0.70;;
36321;SDS011;23564;48.290;11.460;2024-02-15T12:55:19;3.45;;;0.77;;
36321;SDS011;23564;48.290;11.460;2024-02-15T12:57:52;1.08;;;0.70;;
36321;SDS011;23564;48.290;11.460;2024-02-15T13:00:24;2.25;;;0.85;;
36321;SDS011;23564;48.290;11.460;2024-02-15T13:02:54;3.05;;;0.70;;
36321;SDS011;23564;48.290;11.460;2024-02-15T13:05:20;2.25;;;0.60;;
36321;SDS011;23564;48.290;11.460;2024-02-15T13:07:50;3.38;;;0.82;;
36321;SDS011;23564;48.290;11.460;2024-02-15T13:10:16;3.35;;;0.77;;
36321;SDS011;23564;48.290;11.460;2024-02-15T13:12:42;1.83;;;0.75;;
36321;SDS011;23564;48.290;11.460;2024-02-15T13:15:12;1.88;;;0.70;;
36321;SDS011;23564;48.290;11.460;2024-02-15T13:17:52;4.20;;;0.70;;
36321;SDS011;23564;48.290;11.460;2024-02-15T13:20:18;3.25;;;0.70;;
36321;SDS011;23564;48.290;11.460;2024-02-15T13:23:04;3.38;;;0.93;;
36321;SDS011;23564;48.290;11.460;2024-02-15T13:25:37;1.77;;;0.85;;
36321;SDS011;23564;48.290;11.460;2024-02-15T13:28:04;3.53;;;0.55;;
36321;SDS011;23564;48.290;11.460;2024-02-15T13:30:30;2.33;;;0.80;;
36321;SDS011;23564;48.290;11.460;2024-02-15T13:32:57;1.75;;;0.77;;
36321;SDS011;23564;48.290;11.460;2024-02-15T13:35:23;1.40;;;0.70;;
36321;SDS011;23564;48.290;11.460;2024-02-15T13:37:52;2.88;;;0.70;;
36321;SDS011;23564;48.290;11.460;2024-02-15T13:40:19;2.47;;;0.80;;
36321;SDS011;23564;48.290;11.460;2024-02-15T13:42:52;1.52;;;0.65;;
36321;SDS011;23564;48.290;11.460;2024-02-15T13:45:24;1.48;;;0.80;;
36321;SDS011;23564;48.290;11.460;2024-02-15T13:48:02;5.65;;;0.60;;
36321;SDS011;23564;48.290;11.460;2024-02-15T13:50:30;2.05;;;0.90;;
36321;SDS011;23564;48.290;11.460;2024-02-15T13:52:56;2.65;;;0.80;;
36321;SDS011;23564;48.290;11.460;2024-02-15T13:55:23;3.88;;;0.80;;
36321;SDS011;23564;48.290;11.460;2024-02-15T13:57:50;1.27;;;0.60;;
36321;SDS011;23564;48.290;11.460;2024-02-15T14:00:17;3.40;;;1.00;;
36321;SDS011;23564;48.290;11.460;2024-02-15T14:02:47;3.00;;;0.77;;
36321;SDS011;23564;48.290;11.460;2024-02-15T14:05:13;5.72;;;0.80;;
36321;SDS011;23564;48.290;11.460;2024-02-15T14:07:39;1.67;;;0.70;;
36321;SDS011;23564;48.290;11.460;2024-02-15T14:10:05;3.28;;;0.65;;
36321;SDS011;23564;48.290;11.460;2024-02-15T14:12:32;2.28;;;0.80;;
36321;SDS011;23564;48.290;11.460;2024-02-15T14:14:58;2.53;;;0.70;;
36321;SDS011;23564;48.290;11.460;2024-02-15T14:17:23;0.88;;;0.60;;
36321;SDS011;23564;48.290;11.460;2024-02-15T14:19:49;1.48;;;0.50;;
36321;SDS011;23564;48.290;11.460;2024-02-15T14:22:15;1.95;;;0.77;;
36321;SDS011;23564;48.290;11.460;2024-02-15T14:24:43;4.22;;;0.90;;
36321;SDS011;23564;48.290;11.460;2024-02-15T14:27:10;2.20;;;0.82;;
36321;SDS011;23564;48.290;11.460;2024-02-15T14:29:36;1.65;;;0.60;;
36321;SDS011;23564;48.290;11.460;2024-02-15T14:32:09;1.70;;;0.80;;
36321;SDS011;23564;48.290;11.460;2024-02-15T14:34:56;1.10;;;0.65;;
36321;SDS011;23564;48.290;11.460;2024-02-15T14:37:22;1.92;;;0.80;;
36321;SDS011;23564;48.290;11.460;2024-02-15T14:39:49;2.13;;;0.68;;
36321;SDS011;23564;48.290;11.460;2024-02-15T14:42:14;5.25;;;0.95;;
36321;SDS011;23564;48.290;11.460;2024-02-15T14:44:40;3.28;;;0.60;;
36321;SDS011;23564;48.290;11.460;2024-02-15T14:47:08;1.98;;;0.80;;
36321;SDS011;23564;48.290;11.460;2024-02-15T14:49:33;1.77;;;0.88;;
36321;SDS011;23564;48.290;11.460;2024-02-15T14:52:00;1.60;;;0.82;;
36321;SDS011;23564;48.290;11.460;2024-02-15T14:54:26;2.00;;;0.73;;
36321;SDS011;23564;48.290;11.460;2024-02-15T14:56:52;5.15;;;1.00;;
36321;SDS011;23564;48.290;11.460;2024-02-15T14:59:19;3.75;;;0.93;;
36321;SDS011;23564;48.290;11.460;2024-02-15T15:01:44;2.45;;;0.85;;